createdAt,value
2023-01-19T00:00:34.614Z,18.05
2023-01-19T00:03:01.320Z,16.75
2023-01-19T00:05:27.924Z,16.15
2023-01-19T00:07:54.535Z,15.32
2023-01-19T00:10:21.115Z,14.07
2023-01-19T00:12:47.733Z,15.68
2023-01-19T00:15:14.306Z,16.33
2023-01-19T00:17:41.108Z,15.35
2023-01-19T00:20:09.430Z,17.08
2023-01-19T00:22:36.010Z,15.68
2023-01-19T00:25:03.473Z,15.20
2023-01-19T00:27:34.679Z,15.43
2023-01-19T00:30:01.458Z,15.07
2023-01-19T00:32:28.178Z,15.20
2023-01-19T00:34:54.749Z,16.27
2023-01-19T00:37:21.655Z,16.13
2023-01-19T00:39:48.222Z,15.40
2023-01-19T00:42:33.212Z,15.07
2023-01-19T00:44:59.857Z,15.88
2023-01-19T00:47:26.492Z,14.57
2023-01-19T00:49:53.094Z,13.45
2023-01-19T00:52:19.697Z,14.18
2023-01-19T00:54:46.327Z,13.98
2023-01-19T00:57:12.925Z,14.00
2023-01-19T00:59:39.576Z,15.77
2023-01-19T01:02:06.387Z,14.00
2023-01-19T01:04:33.175Z,13.73
2023-01-19T01:06:59.906Z,14.63
2023-01-19T01:09:27.528Z,12.73
2023-01-19T01:11:54.515Z,13.45
2023-01-19T01:14:21.140Z,14.68
2023-01-19T01:16:47.907Z,13.65
2023-01-19T01:19:14.565Z,15.07
2023-01-19T01:21:41.234Z,13.77
2023-01-19T01:24:08.870Z,15.43
2023-01-19T01:26:35.568Z,14.23
2023-01-19T01:29:02.170Z,14.73
2023-01-19T01:31:28.845Z,13.70
2023-01-19T01:33:55.491Z,14.15
2023-01-19T01:36:22.545Z,14.07
2023-01-19T01:38:49.171Z,13.35
2023-01-19T01:41:15.815Z,14.43
2023-01-19T01:43:53.338Z,13.20
2023-01-19T01:46:20.806Z,14.23
2023-01-19T01:48:50.462Z,14.48
2023-01-19T01:51:25.084Z,14.05
2023-01-19T01:54:04.006Z,14.27
2023-01-19T01:56:35.854Z,13.50
2023-01-19T01:59:07.505Z,13.23
2023-01-19T02:01:53.160Z,13.85
2023-01-19T02:04:20.456Z,14.80
2023-01-19T02:07:06.697Z,13.50
2023-01-19T02:09:55.257Z,13.18
2023-01-19T02:12:42.207Z,11.32
2023-01-19T02:15:20.183Z,11.95
2023-01-19T02:17:47.377Z,11.35
2023-01-19T02:20:14.597Z,10.38
2023-01-19T02:22:48.638Z,11.45
2023-01-19T02:25:18.095Z,11.25
2023-01-19T02:27:44.818Z,11.55
2023-01-19T02:30:12.571Z,10.98
2023-01-19T02:32:39.555Z,10.90
2023-01-19T02:35:07.030Z,9.68
2023-01-19T02:37:37.517Z,10.77
2023-01-19T02:40:06.632Z,10.13
2023-01-19T02:42:43.780Z,9.18
2023-01-19T02:45:12.635Z,9.23
2023-01-19T02:47:42.943Z,10.20
2023-01-19T02:50:36.094Z,9.27
2023-01-19T02:53:29.741Z,8.88
2023-01-19T02:56:29.897Z,10.93
2023-01-19T02:59:02.306Z,10.68
2023-01-19T03:01:45.961Z,10.73
2023-01-19T03:04:31.823Z,11.73
2023-01-19T03:07:16.628Z,10.70
2023-01-19T03:09:56.387Z,10.20
2023-01-19T03:12:48.259Z,12.68
2023-01-19T03:15:52.769Z,13.70
2023-01-19T03:18:22.403Z,13.73
2023-01-19T03:20:53.480Z,12.82
2023-01-19T03:23:22.156Z,14.00
2023-01-19T03:25:51.111Z,13.93
2023-01-19T03:28:21.036Z,14.45
2023-01-19T03:30:54.557Z,14.60
2023-01-19T03:33:27.881Z,15.38
2023-01-19T03:36:03.813Z,14.95
2023-01-19T03:38:35.215Z,14.38
2023-01-19T03:41:04.951Z,14.98
2023-01-19T03:43:33.025Z,15.43
2023-01-19T03:46:00.937Z,15.40
2023-01-19T03:48:27.578Z,13.48
2023-01-19T03:50:55.657Z,15.50
2023-01-19T03:53:25.148Z,15.82
2023-01-19T03:55:54.117Z,15.77
2023-01-19T03:58:22.116Z,17.10
2023-01-19T04:00:48.801Z,16.15
2023-01-19T04:03:17.711Z,17.00
2023-01-19T04:05:46.012Z,17.27
2023-01-19T04:08:12.924Z,17.45
2023-01-19T04:10:39.634Z,17.33
2023-01-19T04:13:06.381Z,16.92
2023-01-19T04:15:33.240Z,16.98
2023-01-19T04:18:00.811Z,17.75
2023-01-19T04:20:28.452Z,18.38
2023-01-19T04:22:58.840Z,17.50
2023-01-19T04:25:25.673Z,19.17
2023-01-19T04:27:53.655Z,17.73
2023-01-19T04:30:20.832Z,18.52
2023-01-19T04:32:47.421Z,17.88
2023-01-19T04:35:14.109Z,18.00
2023-01-19T04:37:40.703Z,18.85
2023-01-19T04:40:08.275Z,19.38
2023-01-19T04:42:35.010Z,18.45
2023-01-19T04:45:01.648Z,19.95
2023-01-19T04:47:28.263Z,18.48
2023-01-19T04:49:54.851Z,18.80
2023-01-19T04:52:21.462Z,19.25
2023-01-19T04:54:48.384Z,18.15
2023-01-19T04:57:14.971Z,19.20
2023-01-19T04:59:41.828Z,20.42
2023-01-19T05:02:09.061Z,20.25
2023-01-19T05:04:36.117Z,20.85
2023-01-19T05:07:03.171Z,20.52
2023-01-19T05:09:30.205Z,21.48
2023-01-19T05:11:57.236Z,21.35
2023-01-19T05:14:24.270Z,21.15
2023-01-19T05:16:51.295Z,19.70
2023-01-19T05:19:18.364Z,20.23
2023-01-19T05:21:45.052Z,20.58
2023-01-19T05:24:11.722Z,20.77
2023-01-19T05:26:38.348Z,20.70
2023-01-19T05:29:05.014Z,21.35
2023-01-19T05:31:31.742Z,21.42
2023-01-19T05:33:58.367Z,21.35
2023-01-19T05:36:25.112Z,21.52
2023-01-19T05:38:51.745Z,21.38
2023-01-19T05:41:18.349Z,21.70
2023-01-19T05:43:44.962Z,21.48
2023-01-19T05:46:11.881Z,22.50
2023-01-19T05:48:38.517Z,23.23
2023-01-19T05:51:05.361Z,22.55
2023-01-19T05:53:32.217Z,21.48
2023-01-19T05:56:06.342Z,24.25
2023-01-19T05:58:34.398Z,23.00
2023-01-19T06:01:05.596Z,21.95
2023-01-19T06:03:33.102Z,22.25
2023-01-19T06:06:00.257Z,23.27
2023-01-19T06:08:27.324Z,22.33
2023-01-19T06:10:54.399Z,23.00
2023-01-19T06:13:21.474Z,22.83
2023-01-19T06:15:48.530Z,22.35
2023-01-19T06:18:15.587Z,23.83
2023-01-19T06:20:42.698Z,23.40
2023-01-19T06:23:10.536Z,22.67
2023-01-19T06:25:37.568Z,22.38
2023-01-19T06:28:04.647Z,23.15
2023-01-19T06:30:31.722Z,21.38
2023-01-19T06:32:59.027Z,24.02
2023-01-19T06:35:26.895Z,21.33
2023-01-19T06:37:53.931Z,22.30
2023-01-19T06:40:20.980Z,21.70
2023-01-19T06:42:49.403Z,22.08
2023-01-19T06:45:16.536Z,22.52
2023-01-19T06:47:43.628Z,25.05
2023-01-19T06:50:10.759Z,25.85
2023-01-19T06:52:42.141Z,28.02
2023-01-19T06:55:10.852Z,24.30
2023-01-19T06:57:40.656Z,23.83
2023-01-19T07:00:08.927Z,21.13
2023-01-19T07:02:36.029Z,21.05
2023-01-19T07:05:02.830Z,19.45
2023-01-19T07:07:29.489Z,19.63
2023-01-19T07:09:56.517Z,20.02
2023-01-19T07:12:23.563Z,20.52
2023-01-19T07:14:50.732Z,20.08
2023-01-19T07:17:17.760Z,19.92
2023-01-19T07:19:44.884Z,20.40
2023-01-19T07:22:11.463Z,20.05
2023-01-19T07:24:38.301Z,20.45
2023-01-19T07:27:05.404Z,20.33
2023-01-19T07:29:32.109Z,19.75
2023-01-19T07:31:58.750Z,19.83
2023-01-19T07:34:25.397Z,20.38
2023-01-19T07:36:52.002Z,21.35
2023-01-19T07:39:18.639Z,19.67
2023-01-19T07:41:45.338Z,18.73
2023-01-19T07:44:11.983Z,20.35
2023-01-19T07:46:38.599Z,20.48
2023-01-19T07:49:05.314Z,19.48
2023-01-19T07:51:32.002Z,19.13
2023-01-19T07:53:58.640Z,19.55
2023-01-19T07:56:27.622Z,19.88
2023-01-19T07:58:54.269Z,19.65
2023-01-19T08:01:20.960Z,19.48
2023-01-19T08:03:48.807Z,18.58
2023-01-19T08:06:23.464Z,18.45
2023-01-19T08:08:50.636Z,19.73
2023-01-19T08:11:17.272Z,20.20
2023-01-19T08:13:43.907Z,19.58
2023-01-19T08:16:10.757Z,19.25
2023-01-19T08:18:37.471Z,18.95
2023-01-19T08:21:04.753Z,18.58
2023-01-19T08:23:31.434Z,19.15
2023-01-19T08:25:58.099Z,17.77
2023-01-19T08:28:24.778Z,18.80
2023-01-19T08:30:55.420Z,17.83
2023-01-19T08:33:25.148Z,17.13
2023-01-19T08:35:53.664Z,18.38
2023-01-19T08:38:20.296Z,16.73
2023-01-19T08:40:46.954Z,17.90
2023-01-19T08:43:15.726Z,17.58
2023-01-19T08:45:48.019Z,17.33
2023-01-19T08:48:22.355Z,16.95
2023-01-19T08:50:50.600Z,17.67
2023-01-19T08:53:17.840Z,18.90
2023-01-19T08:55:44.482Z,18.33
2023-01-19T08:58:11.092Z,16.80
2023-01-19T09:00:39.206Z,15.65
2023-01-19T09:03:07.875Z,16.65
2023-01-19T09:05:37.384Z,17.08
2023-01-19T09:08:06.348Z,16.38
2023-01-19T09:10:35.887Z,16.65
2023-01-19T09:13:08.081Z,15.57
2023-01-19T09:15:37.418Z,15.55
2023-01-19T09:18:06.967Z,17.17
2023-01-19T09:20:36.039Z,17.02
2023-01-19T09:23:02.826Z,15.60
2023-01-19T09:25:29.553Z,15.80
2023-01-19T09:27:56.323Z,17.70
2023-01-19T09:30:22.951Z,14.57
2023-01-19T09:32:49.612Z,15.07
2023-01-19T09:35:16.538Z,16.52
2023-01-19T09:37:47.241Z,15.85
2023-01-19T09:40:15.408Z,15.75
2023-01-19T09:42:51.852Z,15.93
2023-01-19T09:45:57.913Z,15.20
2023-01-19T09:48:39.863Z,14.93
2023-01-19T09:51:12.105Z,14.63
2023-01-19T09:53:59.019Z,15.13
2023-01-19T09:56:28.965Z,14.90
2023-01-19T09:58:56.047Z,15.93
2023-01-19T10:01:28.349Z,14.65
2023-01-19T10:04:26.846Z,14.40
2023-01-19T10:07:04.884Z,13.57
2023-01-19T10:09:40.982Z,14.07
2023-01-19T10:12:26.055Z,13.13
2023-01-19T10:15:01.700Z,13.48
2023-01-19T10:17:34.914Z,13.13
2023-01-19T10:20:02.575Z,12.45
2023-01-19T10:22:29.596Z,13.65
2023-01-19T10:24:59.996Z,12.90
2023-01-19T10:27:30.230Z,11.63
2023-01-19T10:29:58.092Z,12.65
2023-01-19T10:32:31.096Z,11.63
2023-01-19T10:34:59.754Z,12.85
2023-01-19T10:37:36.868Z,11.05
2023-01-19T10:40:29.140Z,10.98
2023-01-19T10:42:56.863Z,12.63
2023-01-19T10:45:31.375Z,11.27
2023-01-19T10:48:05.417Z,10.98
2023-01-19T10:50:34.721Z,12.35
2023-01-19T10:53:05.758Z,10.63
2023-01-19T10:55:38.253Z,10.68
2023-01-19T10:58:06.564Z,10.35
2023-01-19T11:00:39.175Z,10.80
2023-01-19T11:03:24.931Z,9.85
2023-01-19T11:05:51.683Z,10.15
2023-01-19T11:08:29.811Z,9.32
2023-01-19T11:11:08.603Z,9.55
2023-01-19T11:13:36.121Z,8.80
2023-01-19T11:16:08.313Z,9.15
2023-01-19T11:18:37.050Z,8.90
2023-01-19T11:21:08.109Z,9.07
2023-01-19T11:23:41.814Z,9.68
2023-01-19T11:28:43.552Z,8.60
2023-01-19T11:31:11.930Z,7.60
2023-01-19T11:33:42.940Z,8.95
2023-01-19T11:36:17.435Z,8.82
2023-01-19T11:38:45.679Z,8.32
2023-01-19T11:41:21.435Z,7.97
2023-01-19T11:43:50.840Z,8.60
2023-01-19T11:46:18.241Z,8.75
2023-01-19T11:49:03.973Z,8.55
2023-01-19T11:51:47.184Z,9.63
2023-01-19T11:54:23.584Z,9.30
2023-01-19T11:56:52.170Z,7.68
2023-01-19T11:59:19.812Z,7.57
2023-01-19T12:01:50.522Z,6.53
2023-01-19T12:04:20.671Z,7.45
2023-01-19T12:06:50.339Z,8.50
2023-01-19T12:09:23.022Z,6.75
2023-01-19T12:11:55.695Z,7.57
2023-01-19T12:14:34.414Z,7.57
2023-01-19T12:17:05.942Z,9.35
2023-01-19T12:19:54.852Z,8.35
2023-01-19T12:22:23.740Z,8.52
2023-01-19T12:25:02.503Z,8.05
2023-01-19T12:27:43.775Z,7.50
2023-01-19T12:30:25.458Z,22.92
2023-01-19T12:33:00.736Z,9.77
2023-01-19T12:35:57.115Z,20.83
2023-01-19T12:38:39.219Z,8.25
2023-01-19T12:41:23.264Z,8.55
2023-01-19T12:46:43.285Z,7.93
2023-01-19T12:49:29.573Z,6.50
2023-01-19T12:52:18.835Z,13.43
2023-01-19T12:55:13.192Z,8.65
2023-01-19T13:00:22.117Z,10.05
2023-01-19T13:03:03.793Z,8.60
2023-01-19T13:05:39.382Z,8.13
2023-01-19T13:08:06.220Z,8.15
2023-01-19T13:10:54.349Z,6.90
2023-01-19T13:13:23.234Z,13.18
2023-01-19T13:15:50.946Z,8.45
2023-01-19T13:18:23.447Z,7.70
2023-01-19T13:20:55.686Z,7.43
2023-01-19T13:23:27.451Z,7.25
2023-01-19T13:26:02.108Z,6.97
2023-01-19T13:28:40.487Z,7.28
2023-01-19T13:31:08.452Z,7.10
2023-01-19T13:33:46.896Z,6.78
2023-01-19T13:36:19.994Z,6.82
2023-01-19T13:38:48.234Z,8.45
2023-01-19T13:41:17.685Z,7.15
2023-01-19T13:43:44.871Z,7.57
2023-01-19T13:46:13.594Z,7.30
2023-01-19T13:48:40.840Z,6.05
2023-01-19T13:51:17.490Z,7.13
2023-01-19T13:53:54.170Z,6.32
2023-01-19T13:56:23.124Z,4.50
2023-01-19T13:58:59.510Z,4.53
2023-01-19T14:01:29.098Z,4.82
2023-01-19T14:03:56.410Z,4.90
2023-01-19T14:06:31.125Z,5.05
2023-01-19T14:09:08.472Z,5.47
2023-01-19T14:11:35.636Z,4.70
2023-01-19T14:14:02.868Z,5.25
2023-01-19T14:16:29.988Z,5.25
2023-01-19T14:19:01.045Z,5.25
2023-01-19T14:21:37.507Z,5.00
2023-01-19T14:24:17.106Z,5.30
2023-01-19T14:26:48.832Z,5.30
2023-01-19T14:29:25.056Z,4.75
2023-01-19T14:31:53.692Z,5.90
2023-01-19T14:34:29.787Z,5.65
2023-01-19T14:36:56.928Z,5.88
2023-01-19T14:39:25.157Z,6.13
2023-01-19T14:41:53.209Z,6.25
2023-01-19T14:44:25.442Z,5.80
2023-01-19T14:46:53.516Z,6.40
2023-01-19T14:49:22.360Z,6.55
2023-01-19T14:51:49.696Z,6.35
2023-01-19T14:54:18.418Z,6.72
2023-01-19T14:56:45.423Z,6.40
2023-01-19T14:59:12.545Z,6.90
2023-01-19T15:01:39.801Z,6.10
2023-01-19T15:04:06.936Z,6.20
2023-01-19T15:06:34.782Z,5.82
2023-01-19T15:09:01.823Z,6.55
2023-01-19T15:11:35.621Z,6.15
2023-01-19T15:16:30.615Z,5.85
2023-01-19T15:18:57.710Z,6.55
2023-01-19T15:21:26.596Z,6.50
2023-01-19T15:23:54.522Z,5.40
2023-01-19T15:26:22.866Z,6.28
2023-01-19T15:28:50.410Z,5.93
2023-01-19T15:31:18.409Z,6.40
2023-01-19T15:33:45.812Z,6.03
2023-01-19T15:36:14.432Z,6.55
2023-01-19T15:38:42.478Z,6.28
2023-01-19T15:41:30.146Z,7.35
2023-01-19T15:43:57.248Z,7.85
2023-01-19T15:46:25.357Z,7.70
2023-01-19T15:48:52.877Z,7.80
2023-01-19T15:51:21.251Z,7.30
2023-01-19T15:53:48.555Z,8.18
2023-01-19T15:56:16.869Z,7.00
2023-01-19T15:58:44.027Z,7.45
2023-01-19T16:01:13.275Z,7.00
2023-01-19T16:03:40.376Z,7.63
2023-01-19T16:06:07.995Z,8.65
2023-01-19T16:08:35.471Z,8.43
2023-01-19T16:11:20.613Z,8.13
2023-01-19T16:13:48.155Z,7.93
2023-01-19T16:16:16.666Z,7.68
2023-01-19T16:18:43.693Z,8.50
2023-01-19T16:21:10.731Z,7.82
2023-01-19T16:23:37.753Z,7.65
2023-01-19T16:26:09.108Z,8.45
2023-01-19T16:28:36.730Z,7.30
2023-01-19T16:31:04.364Z,8.07
2023-01-19T16:33:31.417Z,8.10
2023-01-19T16:35:58.665Z,8.02
2023-01-19T16:38:25.772Z,7.30
2023-01-19T16:40:52.872Z,7.35
2023-01-19T16:43:19.934Z,7.50
2023-01-19T16:46:00.785Z,7.80
2023-01-19T16:48:28.161Z,7.25
2023-01-19T16:51:06.079Z,7.63
2023-01-19T16:53:37.228Z,7.82
2023-01-19T16:56:08.113Z,7.80
2023-01-19T16:58:38.125Z,9.52
2023-01-19T17:01:08.929Z,8.27
2023-01-19T17:03:36.235Z,7.72
2023-01-19T17:06:03.353Z,8.57
2023-01-19T17:08:30.391Z,9.13
2023-01-19T17:10:57.456Z,8.30
2023-01-19T17:13:24.523Z,11.32
2023-01-19T17:15:51.619Z,8.85
2023-01-19T17:18:18.714Z,8.45
2023-01-19T17:20:45.711Z,8.63
2023-01-19T17:23:12.699Z,10.35
2023-01-19T17:25:39.766Z,8.85
2023-01-19T17:28:06.802Z,10.05
2023-01-19T17:30:34.014Z,7.88
2023-01-19T17:33:01.116Z,7.13
2023-01-19T17:35:28.109Z,8.50
2023-01-19T17:37:55.990Z,6.90
2023-01-19T17:40:25.930Z,8.45
2023-01-19T17:42:53.095Z,7.53
2023-01-19T17:45:20.116Z,8.52
2023-01-19T17:47:49.808Z,8.02
2023-01-19T17:50:17.468Z,8.48
2023-01-19T17:52:44.713Z,8.18
2023-01-19T17:55:12.037Z,8.18
2023-01-19T17:57:39.074Z,7.97
2023-01-19T18:00:06.667Z,8.35
2023-01-19T18:02:34.407Z,8.13
2023-01-19T18:05:02.641Z,8.90
2023-01-19T18:07:30.393Z,8.65
2023-01-19T18:09:59.570Z,7.43
2023-01-19T18:12:27.973Z,8.77
2023-01-19T18:14:55.074Z,7.80
2023-01-19T18:17:22.092Z,7.65
2023-01-19T18:19:49.193Z,9.52
2023-01-19T18:22:16.191Z,9.13
2023-01-19T18:24:44.347Z,8.02
2023-01-19T18:27:11.359Z,9.23
2023-01-19T18:29:38.393Z,7.55
2023-01-19T18:32:05.506Z,7.43
2023-01-19T18:34:32.517Z,8.02
2023-01-19T18:36:59.599Z,7.93
2023-01-19T18:39:26.654Z,7.68
2023-01-19T18:41:53.648Z,8.73
2023-01-19T18:44:20.723Z,8.43
2023-01-19T18:46:47.803Z,8.02
2023-01-19T18:49:14.964Z,8.07
2023-01-19T18:51:42.065Z,7.53
2023-01-19T18:54:09.613Z,8.15
2023-01-19T18:56:36.634Z,7.85
2023-01-19T18:59:03.825Z,7.82
2023-01-19T19:01:33.083Z,8.45
2023-01-19T19:04:00.433Z,7.80
2023-01-19T19:06:28.110Z,9.10
2023-01-19T19:08:56.447Z,8.35
2023-01-19T19:11:24.464Z,9.93
2023-01-19T19:13:52.915Z,7.88
2023-01-19T19:16:19.985Z,8.00
2023-01-19T19:18:50.038Z,8.13
2023-01-19T19:21:17.909Z,8.43
2023-01-19T19:23:44.992Z,8.68
2023-01-19T19:26:12.943Z,10.10
2023-01-19T19:28:41.017Z,8.73
2023-01-19T19:31:12.132Z,9.30
2023-01-19T19:33:39.731Z,8.80
2023-01-19T19:36:07.534Z,10.32
2023-01-19T19:38:36.786Z,8.88
2023-01-19T19:41:07.705Z,8.13
2023-01-19T19:43:35.129Z,8.10
2023-01-19T19:46:07.081Z,7.88
2023-01-19T19:48:34.773Z,8.18
2023-01-19T19:51:17.056Z,7.18
2023-01-19T19:53:45.301Z,8.15
2023-01-19T19:56:13.141Z,7.55
2023-01-19T19:58:41.662Z,7.65
2023-01-19T20:01:16.133Z,7.10
2023-01-19T20:03:43.444Z,7.57
2023-01-19T20:06:13.016Z,8.20
2023-01-19T20:08:40.061Z,7.10
2023-01-19T20:11:11.108Z,7.70
2023-01-19T20:13:38.954Z,7.95
2023-01-19T20:16:07.258Z,9.18
2023-01-19T20:18:34.404Z,7.70
2023-01-19T20:21:01.572Z,8.48
2023-01-19T20:23:28.658Z,7.75
2023-01-19T20:25:55.708Z,8.75
2023-01-19T20:28:22.707Z,8.18
2023-01-19T20:30:49.742Z,9.57
2023-01-19T20:33:16.810Z,7.78
2023-01-19T20:35:43.893Z,8.95
2023-01-19T20:38:11.007Z,8.05
2023-01-19T20:40:38.029Z,8.15
2023-01-19T20:43:05.967Z,8.75
2023-01-19T20:45:33.189Z,8.77
2023-01-19T20:48:00.256Z,8.55
2023-01-19T20:50:27.311Z,8.57
2023-01-19T20:52:54.384Z,8.02
2023-01-19T20:55:21.397Z,8.57
2023-01-19T20:57:48.415Z,8.90
2023-01-19T21:00:15.678Z,8.77
2023-01-19T21:02:42.757Z,9.38
2023-01-19T21:05:10.139Z,9.45
2023-01-19T21:07:37.221Z,9.00
2023-01-19T21:10:04.955Z,8.70
2023-01-19T21:12:31.960Z,9.00
2023-01-19T21:14:59.011Z,9.10
2023-01-19T21:17:26.304Z,8.55
2023-01-19T21:19:53.356Z,8.57
2023-01-19T21:22:20.343Z,8.70
2023-01-19T21:24:47.835Z,8.18
2023-01-19T21:27:14.856Z,8.63
2023-01-19T21:29:41.962Z,8.05
2023-01-19T21:32:09.093Z,9.43
2023-01-19T21:34:36.229Z,7.85
2023-01-19T21:37:03.215Z,8.38
2023-01-19T21:39:30.254Z,7.82
2023-01-19T21:41:57.296Z,7.53
2023-01-19T21:44:24.396Z,7.43
2023-01-19T21:46:51.520Z,7.70
2023-01-19T21:49:19.521Z,8.70
2023-01-19T21:51:47.991Z,8.75
2023-01-19T21:54:15.154Z,8.75
2023-01-19T21:56:43.270Z,8.48
2023-01-19T21:59:14.788Z,8.18
2023-01-19T22:01:42.526Z,8.63
2023-01-19T22:04:09.611Z,8.43
2023-01-19T22:06:36.762Z,9.02
2023-01-19T22:09:03.940Z,8.18
2023-01-19T22:11:31.149Z,8.95
2023-01-19T22:14:01.323Z,7.97
2023-01-19T22:16:29.165Z,9.02
2023-01-19T22:18:59.318Z,8.00
2023-01-19T22:21:31.427Z,7.97
2023-01-19T22:23:59.482Z,9.07
2023-01-19T22:26:27.518Z,8.68
2023-01-19T22:28:55.771Z,8.13
2023-01-19T22:31:23.729Z,8.20
2023-01-19T22:33:51.327Z,8.43
2023-01-19T22:36:20.157Z,8.90
2023-01-19T22:39:06.444Z,9.15
2023-01-19T22:41:35.398Z,8.55
2023-01-19T22:44:03.743Z,8.90
2023-01-19T22:46:32.066Z,8.85
2023-01-19T22:48:59.505Z,8.90
2023-01-19T22:51:27.238Z,8.85
2023-01-19T22:53:53.980Z,9.10
2023-01-19T22:56:28.567Z,9.90
2023-01-19T22:58:55.684Z,8.05
2023-01-19T23:01:30.246Z,8.60
2023-01-19T23:03:57.182Z,8.85
2023-01-19T23:06:26.608Z,8.60
2023-01-19T23:08:55.913Z,8.68
2023-01-19T23:11:25.995Z,8.25
2023-01-19T23:13:53.204Z,7.40
2023-01-19T23:16:19.956Z,8.60
2023-01-19T23:18:47.207Z,8.23
2023-01-19T23:21:18.405Z,9.10
2023-01-19T23:23:45.730Z,8.82
2023-01-19T23:26:15.084Z,8.70
2023-01-19T23:28:42.711Z,9.68
2023-01-19T23:31:13.575Z,8.77
2023-01-19T23:33:44.114Z,8.45
2023-01-19T23:36:12.095Z,8.20
2023-01-19T23:38:39.256Z,8.95
2023-01-19T23:41:05.968Z,9.27
2023-01-19T23:43:53.513Z,8.88
2023-01-19T23:46:20.699Z,8.45
2023-01-19T23:48:47.509Z,8.60
2023-01-19T23:51:20.176Z,8.52
2023-01-19T23:53:46.939Z,9.25
2023-01-19T23:56:17.293Z,8.30
2023-01-19T23:58:45.559Z,9.43
